Time;durP1;ratioP1;P1;durP2;ratioP2;P2;SDS_P1;SDS_P2;PMS_P1;PMS_P2;Temp;Humidity;BMP_temperature;BMP_pressure;BME280_temperature;BME280_humidity;BME280_pressure;Samples;Min_cycle;Max_cycle;Signal;HPM_P1;HPM_P2
2021/01/03 00:02:10;;;;;;;18.53;10.17;;;;;;;2.54;73.45;97191.97;4958892;28;20270;-82
2021/01/03 00:04:39;;;;;;;16.83;10.17;;;;;;;2.56;73.65;97185.06;4960636;28;20228;-83
2021/01/03 00:07:05;;;;;;;18.80;10.23;;;;;;;2.53;73.49;97180.00;4960763;28;20625;-86
2021/01/03 00:09:32;;;;;;;18.33;10.30;;;;;;;2.52;73.51;97179.16;4948624;28;20220;-85
2021/01/03 00:11:59;;;;;;;18.10;10.27;;;;;;;2.51;73.71;97173.13;4958699;28;20251;-85
2021/01/03 00:14:30;;;;;;;16.97;9.93;;;;;;;2.54;73.77;97173.94;4956389;28;20256;-83
2021/01/03 00:16:58;;;;;;;18.20;9.60;;;;;;;2.57;73.82;97171.31;4942151;28;20522;-81
2021/01/03 00:19:25;;;;;;;16.47;9.77;;;;;;;2.56;73.79;97177.34;4958904;28;20753;-81
2021/01/03 00:21:51;;;;;;;18.17;10.20;;;;;;;2.53;73.49;97169.69;4956831;28;20246;-81
2021/01/03 00:24:18;;;;;;;14.40;8.33;;;;;;;2.49;73.49;97163.75;4948970;28;20311;-83
2021/01/03 00:26:44;;;;;;;16.43;9.10;;;;;;;2.50;74.04;97166.31;4951049;28;20260;-82
2021/01/03 00:29:12;;;;;;;16.10;8.77;;;;;;;2.50;73.91;97160.31;4959674;28;20217;-83
2021/01/03 00:31:41;;;;;;;15.63;9.13;;;;;;;2.49;73.70;97159.44;4956872;28;20246;-83
2021/01/03 00:34:08;;;;;;;12.97;7.73;;;;;;;2.49;73.80;97159.44;4961072;28;20227;-81
2021/01/03 00:36:34;;;;;;;13.33;8.30;;;;;;;2.50;74.08;97163.72;4933984;28;20245;-82
2021/01/03 00:39:01;;;;;;;14.77;8.57;;;;;;;2.50;73.77;97156.00;4958488;28;20229;-83
2021/01/03 00:41:27;;;;;;;15.13;8.73;;;;;;;2.54;74.06;97161.06;4956876;28;20271;-83
2021/01/03 00:43:53;;;;;;;12.50;7.63;;;;;;;2.55;73.91;97158.47;4961301;28;20662;-83
2021/01/03 00:46:20;;;;;;;12.90;7.73;;;;;;;2.54;74.07;97167.09;4957707;28;20335;-82
2021/01/03 00:48:47;;;;;;;16.47;8.70;;;;;;;2.57;74.30;97156.69;4937358;28;20230;-82
2021/01/03 00:51:13;;;;;;;14.27;8.33;;;;;;;2.55;74.24;97158.47;4956726;28;20241;-83
2021/01/03 00:53:39;;;;;;;17.07;8.63;;;;;;;2.49;74.32;97154.31;4950147;28;20734;-83
2021/01/03 00:56:06;;;;;;;14.93;8.83;;;;;;;2.47;74.13;97147.50;4957201;28;20237;-83
2021/01/03 00:58:32;;;;;;;13.97;8.20;;;;;;;2.50;74.45;97150.03;4958021;28;20713;-83
2021/01/03 01:00:59;;;;;;;15.17;8.60;;;;;;;2.49;74.52;97151.72;4959414;28;21290;-83
2021/01/03 01:03:28;;;;;;;16.03;9.57;;;;;;;2.48;74.81;97155.19;4945379;28;20320;-83
2021/01/03 01:05:54;;;;;;;12.90;7.90;;;;;;;2.49;74.74;97153.47;4958988;28;20240;-83
2021/01/03 01:08:20;;;;;;;14.20;8.27;;;;;;;2.47;74.97;97156.06;4956332;28;20240;-84
2021/01/03 01:10:47;;;;;;;13.60;8.83;;;;;;;2.49;75.25;97156.03;4957042;28;20240;-84
2021/01/03 01:13:13;;;;;;;14.63;8.33;;;;;;;2.51;75.02;97157.69;4957360;28;20816;-84
2021/01/03 01:15:39;;;;;;;15.83;8.67;;;;;;;2.54;75.03;97154.22;4957258;28;20248;-84
2021/01/03 01:18:06;;;;;;;15.50;8.97;;;;;;;2.49;75.32;97159.44;4957938;28;20248;-83
2021/01/03 01:20:34;;;;;;;12.60;7.80;;;;;;;2.51;75.55;97155.09;4956793;28;20252;-83
2021/01/03 01:23:01;;;;;;;14.40;9.07;;;;;;;2.54;75.32;97156.78;4960641;28;20217;-82
2021/01/03 01:25:29;;;;;;;19.47;9.97;;;;;;;2.56;75.56;97157.59;4957051;28;20241;-82
2021/01/03 01:27:56;;;;;;;16.33;9.27;;;;;;;2.57;75.45;97161.00;4958090;28;20332;-82
2021/01/03 01:30:23;;;;;;;16.13;9.27;;;;;;;2.56;75.73;97160.16;4957715;28;20235;-82
2021/01/03 01:32:50;;;;;;;18.97;9.77;;;;;;;2.55;75.81;97160.19;4958588;28;20237;-83
2021/01/03 01:35:19;;;;;;;16.70;9.50;;;;;;;2.56;75.68;97159.34;4958358;28;20784;-82
2021/01/03 01:37:46;;;;;;;15.17;8.87;;;;;;;2.58;76.02;97155.84;4958146;28;20253;-84
2021/01/03 01:40:15;;;;;;;17.17;9.73;;;;;;;2.60;75.73;97159.22;4959386;28;20753;-83
2021/01/03 01:42:41;;;;;;;15.93;9.87;;;;;;;2.60;75.84;97153.22;4958194;28;20227;-84
2021/01/03 01:45:11;;;;;;;16.60;9.37;;;;;;;2.60;75.79;97154.06;4957888;28;20216;-84
2021/01/03 01:47:39;;;;;;;18.30;9.20;;;;;;;2.59;75.80;97154.09;4956028;28;20241;-83
2021/01/03 01:50:08;;;;;;;17.20;9.83;;;;;;;2.57;75.87;97150.72;4958019;28;20223;-82
2021/01/03 01:52:43;;;;;;;20.83;10.57;;;;;;;2.56;76.04;97151.59;4958815;28;20221;-83
2021/01/03 01:55:16;;;;;;;19.73;10.13;;;;;;;2.53;76.06;97149.09;4958258;28;20260;-83
2021/01/03 01:57:45;;;;;;;20.53;11.10;;;;;;;2.55;76.13;97148.16;4957310;28;20248;-83
2021/01/03 02:00:16;;;;;;;19.40;9.90;;;;;;;2.53;76.31;97141.38;4957215;28;20237;-84
2021/01/03 02:02:47;;;;;;;19.37;10.67;;;;;;;2.50;76.43;97143.13;4951579;28;20396;-83
2021/01/03 02:05:17;;;;;;;19.10;10.20;;;;;;;2.44;76.66;97139.84;4959533;28;20213;-83
2021/01/03 02:07:53;;;;;;;21.20;10.50;;;;;;;2.39;76.77;97141.66;4958158;28;20255;-83
2021/01/03 02:10:23;;;;;;;21.60;11.00;;;;;;;2.36;77.01;97132.31;4956868;28;20220;-82
2021/01/03 02:12:51;;;;;;;22.80;10.93;;;;;;;2.33;77.23;97131.53;4958876;28;20246;-83
2021/01/03 02:15:25;;;;;;;20.13;10.47;;;;;;;2.28;77.34;97134.22;4957383;28;20221;-83
2021/01/03 02:17:51;;;;;;;19.93;10.47;;;;;;;2.30;77.49;97140.16;4959098;28;20471;-83
2021/01/03 02:20:18;;;;;;;19.70;10.80;;;;;;;2.29;77.51;97141.03;4956984;28;20240;-82
2021/01/03 02:22:48;;;;;;;19.03;10.97;;;;;;;2.28;77.76;97136.78;4957629;28;20212;-85
2021/01/03 02:25:17;;;;;;;20.50;10.10;;;;;;;2.28;77.60;97135.03;4957716;28;20283;-83
2021/01/03 02:27:53;;;;;;;19.40;10.13;;;;;;;2.29;77.59;97141.03;4956451;28;20928;-83
2021/01/03 02:30:20;;;;;;;17.80;9.43;;;;;;;2.29;77.39;97130.75;4956328;28;20217;-83
2021/01/03 02:32:48;;;;;;;21.93;11.07;;;;;;;2.33;77.62;97134.09;4958585;28;20226;-82
2021/01/03 02:35:15;;;;;;;18.87;9.67;;;;;;;2.32;77.89;97130.69;4957181;28;20221;-83
2021/01/03 02:37:45;;;;;;;20.87;11.03;;;;;;;2.31;77.82;97122.09;4957185;28;20253;-83
2021/01/03 02:40:14;;;;;;;22.10;11.37;;;;;;;2.30;77.85;97130.72;4954680;28;20287;-83
2021/01/03 02:42:42;;;;;;;21.77;10.00;;;;;;;2.27;78.01;97125.63;4956601;28;20244;-85
2021/01/03 02:45:12;;;;;;;22.53;10.67;;;;;;;2.27;77.97;97127.34;4957220;28;20221;-84
2021/01/03 02:47:38;;;;;;;22.30;11.07;;;;;;;2.26;78.27;97125.66;4958885;28;20251;-82
2021/01/03 02:50:05;;;;;;;23.47;11.10;;;;;;;2.27;78.26;97128.19;4956882;28;20205;-83
2021/01/03 02:52:34;;;;;;;21.00;10.73;;;;;;;2.27;78.25;97123.03;4956836;28;20252;-82
2021/01/03 02:55:00;;;;;;;18.53;10.90;;;;;;;2.28;78.31;97124.75;4959356;28;20220;-83
2021/01/03 02:57:26;;;;;;;19.70;9.97;;;;;;;2.30;78.39;97129.88;4936069;28;20267;-83
2021/01/03 02:59:54;;;;;;;18.57;10.30;;;;;;;2.31;78.15;97128.97;4958212;28;20271;-84
2021/01/03 03:02:20;;;;;;;20.47;10.77;;;;;;;2.31;78.41;97121.25;4955896;28;20245;-83
2021/01/03 03:04:46;;;;;;;20.53;10.50;;;;;;;2.31;78.37;97124.66;4955379;28;20226;-84
2021/01/03 03:07:13;;;;;;;19.70;10.17;;;;;;;2.33;78.58;97126.38;4956626;28;20311;-85
2021/01/03 03:09:39;;;;;;;20.13;10.13;;;;;;;2.36;78.34;97127.16;4955092;28;20722;-83
2021/01/03 03:12:06;;;;;;;19.70;9.97;;;;;;;2.38;78.24;97124.56;4956702;28;20236;-82
2021/01/03 03:14:33;;;;;;;17.77;10.37;;;;;;;2.38;78.30;97125.38;4957165;28;20674;-83
2021/01/03 03:17:01;;;;;;;21.77;10.47;;;;;;;2.39;78.34;97127.09;4957702;28;20244;-83
2021/01/03 03:19:27;;;;;;;20.27;10.07;;;;;;;2.40;78.28;97128.78;4956693;28;20243;-83
2021/01/03 03:21:54;;;;;;;21.07;10.40;;;;;;;2.43;78.25;97130.44;4935784;28;20890;-84
2021/01/03 03:24:21;;;;;;;18.80;9.83;;;;;;;2.42;78.15;97132.16;4954935;28;20221;-83
2021/01/03 03:26:51;;;;;;;21.70;10.03;;;;;;;2.44;78.06;97130.38;4954434;28;20242;-84
2021/01/03 03:29:17;;;;;;;19.77;9.97;;;;;;;2.39;78.34;97127.09;4958766;28;20216;-84
2021/01/03 03:31:44;;;;;;;20.73;10.40;;;;;;;2.41;78.42;97125.31;4959331;28;20252;-83
2021/01/03 03:34:11;;;;;;;20.97;10.57;;;;;;;2.41;78.53;97130.47;4960333;28;20221;-84
2021/01/03 03:36:37;;;;;;;23.07;11.17;;;;;;;2.43;78.48;97126.13;4959535;28;20241;-83
2021/01/03 03:39:04;;;;;;;20.73;10.60;;;;;;;2.43;78.34;97121.00;4951272;28;20266;-82
2021/01/03 03:41:30;;;;;;;22.27;11.10;;;;;;;2.43;78.04;97120.16;4959906;28;20254;-82
2021/01/03 03:43:56;;;;;;;23.40;11.20;;;;;;;2.45;78.23;97116.66;4961041;28;20275;-82
2021/01/03 03:46:23;;;;;;;27.07;11.10;;;;;;;2.43;78.61;97115.84;4960974;28;20268;-84
2021/01/03 03:48:49;;;;;;;22.03;11.13;;;;;;;2.45;78.24;97110.66;4960884;28;20587;-84
2021/01/03 03:51:16;;;;;;;19.97;10.13;;;;;;;2.43;78.46;97102.13;4959638;28;20637;-84
2021/01/03 03:53:43;;;;;;;24.50;11.57;;;;;;;2.42;78.20;97111.56;4959454;28;20312;-83
2021/01/03 03:56:09;;;;;;;21.30;10.63;;;;;;;2.46;78.48;97118.34;4959036;28;20233;-84
2021/01/03 03:58:36;;;;;;;19.07;10.70;;;;;;;2.40;78.55;97103.03;4961300;28;20261;-83
2021/01/03 04:01:02;;;;;;;19.13;9.43;;;;;;;2.37;78.62;97110.84;4960098;28;20610;-84
2021/01/03 04:03:29;;;;;;;19.90;11.20;;;;;;;2.37;78.75;97103.13;4959831;28;20298;-84
2021/01/03 04:05:55;;;;;;;19.00;10.10;;;;;;;2.37;78.74;97104.81;4959833;28;20248;-84
2021/01/03 04:08:22;;;;;;;17.40;9.53;;;;;;;2.37;78.79;97105.69;4958250;28;20291;-82
2021/01/03 04:10:48;;;;;;;18.13;9.83;;;;;;;2.34;78.84;97108.34;4958303;28;20247;-83
2021/01/03 04:13:14;;;;;;;17.17;9.27;;;;;;;2.32;79.05;97099.81;4958730;28;20239;-84
2021/01/03 04:15:41;;;;;;;19.27;9.90;;;;;;;2.34;78.95;97098.03;4948541;28;20960;-83
2021/01/03 04:18:08;;;;;;;19.20;10.10;;;;;;;2.41;78.58;97103.88;4959743;28;20247;-84
2021/01/03 04:20:34;;;;;;;23.67;10.87;;;;;;;2.43;78.76;97087.53;4956179;28;20248;-83
2021/01/03 04:23:01;;;;;;;26.63;11.93;;;;;;;2.44;78.28;97086.63;4960329;28;20818;-83
2021/01/03 04:25:28;;;;;;;27.27;11.87;;;;;;;2.45;78.69;97090.91;4957469;28;20244;-84
2021/01/03 04:27:54;;;;;;;22.30;11.40;;;;;;;2.45;78.62;97085.75;4960648;28;20908;-82
2021/01/03 04:30:22;;;;;;;30.00;12.50;;;;;;;2.44;78.51;97088.38;4959059;28;20216;-83
2021/01/03 04:32:48;;;;;;;25.20;10.73;;;;;;;2.43;78.74;97082.38;4960600;28;20218;-82
2021/01/03 04:35:15;;;;;;;23.10;11.03;;;;;;;2.43;78.69;97079.81;4958434;28;20691;-82
2021/01/03 04:37:41;;;;;;;24.47;11.90;;;;;;;2.43;78.56;97071.25;4957616;28;20722;-84
2021/01/03 04:40:13;;;;;;;23.50;11.13;;;;;;;2.42;78.73;97067.81;4958085;28;20248;-83
2021/01/03 04:42:40;;;;;;;24.57;11.57;;;;;;;2.43;78.87;97077.22;4958616;28;20221;-83
2021/01/03 04:45:14;;;;;;;22.93;11.57;;;;;;;2.44;78.71;97068.63;4957325;28;20223;-83
2021/01/03 04:47:50;;;;;;;21.97;10.30;;;;;;;2.43;78.76;97072.09;4961225;28;20241;-84
2021/01/03 04:50:28;;;;;;;19.80;9.83;;;;;;;2.42;78.75;97072.13;4958529;28;20212;-83
2021/01/03 04:53:05;;;;;;;18.77;9.53;;;;;;;2.34;78.95;97072.31;4960290;28;20226;-83
2021/01/03 04:55:32;;;;;;;16.73;9.37;;;;;;;2.29;79.34;97079.28;4957147;28;20298;-82
2021/01/03 04:58:21;;;;;;;19.13;9.87;;;;;;;2.30;79.06;97080.97;4960624;28;20241;-83
2021/01/03 05:00:51;;;;;;;18.47;9.20;;;;;;;2.29;79.58;97079.28;4958683;28;20249;-83
2021/01/03 05:03:44;;;;;;;17.50;9.13;;;;;;;2.29;79.32;97079.28;4961252;28;20641;-82
2021/01/03 05:06:16;;;;;;;17.47;9.27;;;;;;;2.29;79.35;97085.25;4959307;28;20236;-82
2021/01/03 05:08:45;;;;;;;17.40;9.23;;;;;;;2.29;79.51;97090.41;4959192;28;20248;-83
2021/01/03 05:11:15;;;;;;;18.67;9.07;;;;;;;2.27;79.47;97096.47;4959645;28;20946;-83
2021/01/03 05:13:46;;;;;;;14.33;8.53;;;;;;;2.27;79.60;97106.78;4958012;28;20218;-82
2021/01/03 05:16:15;;;;;;;15.83;8.80;;;;;;;2.26;79.55;97099.91;4959242;28;20243;-83
2021/01/03 05:18:41;;;;;;;17.33;9.53;;;;;;;2.31;79.65;97098.09;4958475;28;20237;-84
2021/01/03 05:21:08;;;;;;;24.33;10.60;;;;;;;2.36;79.51;97103.16;4959336;28;20324;-84
2021/01/03 05:23:36;;;;;;;18.43;9.67;;;;;;;2.38;79.41;97104.81;4955503;28;20212;-84
2021/01/03 05:26:05;;;;;;;18.50;9.50;;;;;;;2.37;79.10;97110.84;4959237;28;20233;-83
2021/01/03 05:28:33;;;;;;;17.40;9.30;;;;;;;2.32;79.33;97110.09;4957704;28;20243;-83
2021/01/03 05:31:12;;;;;;;19.57;9.50;;;;;;;2.25;79.12;97108.53;4958862;28;20237;-82
2021/01/03 05:33:50;;;;;;;19.40;10.27;;;;;;;2.27;79.50;97111.91;4959240;28;20220;-84
2021/01/03 05:36:25;;;;;;;21.40;10.60;;;;;;;2.33;79.33;97106.63;4956817;28;20625;-83
2021/01/03 05:38:52;;;;;;;18.40;9.60;;;;;;;2.38;79.56;97107.38;4961451;28;20243;-83
2021/01/03 05:41:21;;;;;;;19.73;10.17;;;;;;;2.39;79.24;97101.34;4956980;28;20969;-83
2021/01/03 05:43:55;;;;;;;20.07;9.67;;;;;;;2.44;79.27;97108.97;4959593;28;20622;-82
2021/01/03 05:46:25;;;;;;;22.10;10.93;;;;;;;2.48;79.19;97101.16;4958441;28;20241;-84
2021/01/03 05:48:59;;;;;;;16.50;9.27;;;;;;;2.51;79.09;97101.06;4959531;28;20251;-82
2021/01/03 05:51:35;;;;;;;22.97;11.00;;;;;;;2.49;78.89;97102.81;4956522;28;20256;-82
2021/01/03 05:54:04;;;;;;;23.97;11.23;;;;;;;2.49;79.03;97113.13;4957461;28;20221;-84
2021/01/03 05:56:32;;;;;;;25.77;11.37;;;;;;;2.49;79.02;97110.53;4956545;28;20344;-82
2021/01/03 05:58:58;;;;;;;23.13;11.90;;;;;;;2.49;79.28;97107.97;4956944;28;20223;-82
2021/01/03 06:01:29;;;;;;;22.10;11.90;;;;;;;2.50;79.38;97114.81;4953751;28;20255;-83
2021/01/03 06:04:07;;;;;;;25.00;13.57;;;;;;;2.48;78.90;97119.16;4959931;28;20704;-84
2021/01/03 06:07:06;;;;;;;22.13;11.83;;;;;;;2.42;79.02;97110.72;4956747;28;20613;-84
2021/01/03 06:09:35;;;;;;;20.43;10.13;;;;;;;2.40;79.41;97123.63;4887512;29;20230;-83
2021/01/03 06:12:05;;;;;;;20.73;11.07;;;;;;;2.39;79.53;97121.94;4943160;28;20331;-84
2021/01/03 06:14:32;;;;;;;19.47;10.70;;;;;;;2.39;79.58;97116.81;4957197;28;20216;-82
2021/01/03 06:17:05;;;;;;;21.30;11.03;;;;;;;2.42;79.58;97121.03;4957637;28;20246;-83
2021/01/03 06:19:35;;;;;;;22.30;10.63;;;;;;;2.44;79.34;97114.94;4957738;28;20243;-83
2021/01/03 06:22:03;;;;;;;19.10;10.93;;;;;;;2.40;79.40;97115.91;4958604;28;20248;-83
2021/01/03 06:24:29;;;;;;;19.10;11.07;;;;;;;2.33;79.36;97111.78;4957247;28;20324;-83
2021/01/03 06:26:58;;;;;;;20.07;10.13;;;;;;;2.30;79.44;97117.00;4942880;28;20960;-84
2021/01/03 06:29:29;;;;;;;18.50;11.23;;;;;;;2.30;79.74;97122.16;4956237;28;20220;-82
2021/01/03 06:32:16;;;;;;;16.90;9.87;;;;;;;2.30;79.32;97111.88;4958679;28;20244;-83
2021/01/03 06:34:50;;;;;;;18.97;10.00;;;;;;;2.28;79.54;97113.63;4957703;28;20219;-82
2021/01/03 06:37:22;;;;;;;16.27;9.70;;;;;;;2.32;79.52;97122.97;4957812;28;20260;-84
2021/01/03 06:39:54;;;;;;;19.80;10.97;;;;;;;2.35;79.58;97115.16;4959212;28;20238;-81
2021/01/03 06:42:54;;;;;;;20.63;11.63;;;;;;;2.38;79.31;97120.25;4956322;28;20248;-85
2021/01/03 06:45:44;;;;;;;20.03;11.47;;;;;;;2.37;78.99;97118.56;4957456;28;20220;-82
2021/01/03 06:48:32;;;;;;;21.00;11.30;;;;;;;2.36;79.14;97122.00;4959318;28;20268;-82
2021/01/03 06:51:20;;;;;;;20.70;11.47;;;;;;;2.35;79.22;97132.31;4956378;28;20298;-82
2021/01/03 06:54:15;;;;;;;22.70;11.80;;;;;;;2.39;79.58;97126.22;4958795;28;20245;-81
2021/01/03 06:57:11;;;;;;;18.80;10.93;;;;;;;2.39;79.30;97128.81;4955855;28;20336;-82
2021/01/03 07:00:13;;;;;;;19.17;10.17;;;;;;;2.41;79.20;97135.63;4954435;28;20233;-84
2021/01/03 07:02:46;;;;;;;21.00;10.97;;;;;;;2.42;79.16;97134.72;4958929;28;20252;-82
2021/01/03 07:05:15;;;;;;;20.20;12.27;;;;;;;2.41;79.08;97125.31;4957153;28;20869;-84
2021/01/03 07:07:43;;;;;;;20.33;11.03;;;;;;;2.42;79.27;97127.00;4957966;28;20241;-83
2021/01/03 07:10:12;;;;;;;20.73;11.37;;;;;;;2.39;79.41;97137.38;4957143;28;20223;-83
2021/01/03 07:12:41;;;;;;;20.90;10.67;;;;;;;2.40;79.58;97141.63;4957387;28;20229;-82
2021/01/03 07:15:11;;;;;;;23.33;11.50;;;;;;;2.44;79.27;97145.00;4957988;28;20227;-83
2021/01/03 07:18:10;;;;;;;23.07;11.53;;;;;;;2.44;78.91;97140.69;4957317;28;20723;-83
2021/01/03 07:20:48;;;;;;;23.73;10.03;;;;;;;2.36;79.34;97142.59;4956214;28;20339;-83
2021/01/03 07:23:18;;;;;;;24.47;11.57;;;;;;;2.37;79.53;97144.31;4957888;28;20587;-83
2021/01/03 07:25:47;;;;;;;23.00;12.23;;;;;;;2.41;79.62;97139.91;4955338;28;20785;-82
2021/01/03 07:28:15;;;;;;;22.17;11.13;;;;;;;2.39;79.46;97142.53;4958324;28;20355;-84
2021/01/03 07:30:58;;;;;;;21.33;11.20;;;;;;;2.41;79.52;97143.34;4955376;28;20754;-83
2021/01/03 07:34:01;;;;;;;27.33;12.03;;;;;;;2.45;79.33;97147.53;4957409;28;20227;-83
2021/01/03 07:36:41;;;;;;;25.23;11.20;;;;;;;2.46;79.25;97146.66;4954442;28;20656;-83
2021/01/03 07:39:14;;;;;;;28.20;11.97;;;;;;;2.46;79.52;97149.25;4956897;28;20274;-83
2021/01/03 07:41:41;;;;;;;23.93;11.73;;;;;;;2.48;79.57;97144.91;4955746;28;20299;-82
2021/01/03 07:44:10;;;;;;;29.50;12.50;;;;;;;2.49;79.41;97149.16;4956548;28;20221;-83
2021/01/03 07:46:42;;;;;;;28.70;12.13;;;;;;;2.49;79.60;97149.16;4957405;28;20779;-83
2021/01/03 07:49:32;;;;;;;25.77;11.90;;;;;;;2.54;79.37;97151.63;4958586;28;20221;-82
2021/01/03 07:52:00;;;;;;;27.20;11.90;;;;;;;2.56;79.58;97155.03;4954761;28;20714;-83
2021/01/03 07:54:27;;;;;;;26.10;11.57;;;;;;;2.55;79.63;97153.31;4954780;28;20229;-83
2021/01/03 07:56:53;;;;;;;20.20;11.83;;;;;;;2.58;79.54;97152.41;4957425;28;20921;-85
2021/01/03 07:59:20;;;;;;;21.10;11.67;;;;;;;2.60;79.75;97150.66;4956580;28;20221;-83
2021/01/03 08:01:48;;;;;;;23.37;11.13;;;;;;;2.66;79.59;97150.50;4945532;28;20248;-82
2021/01/03 08:04:21;;;;;;;22.37;12.07;;;;;;;2.69;79.46;97155.59;4958298;28;20340;-83
2021/01/03 08:06:47;;;;;;;24.17;11.03;;;;;;;2.72;79.36;97155.53;4955595;28;20248;-84
2021/01/03 08:09:24;;;;;;;24.27;11.60;;;;;;;2.76;79.28;97154.56;4958243;28;20224;-83
2021/01/03 08:11:54;;;;;;;25.17;11.83;;;;;;;2.77;79.15;97153.66;4956747;28;20241;-82
2021/01/03 08:14:24;;;;;;;26.17;11.97;;;;;;;2.79;79.18;97158.78;4957623;28;20228;-83
2021/01/03 08:16:51;;;;;;;23.80;11.67;;;;;;;2.80;79.40;97152.78;4957169;28;20861;-83
2021/01/03 08:19:22;;;;;;;22.40;11.80;;;;;;;2.77;79.40;97158.81;4949556;28;20223;-83
2021/01/03 08:21:55;;;;;;;23.93;11.83;;;;;;;2.78;79.19;97170.00;4959265;28;20639;-83
2021/01/03 08:24:22;;;;;;;28.23;12.67;;;;;;;2.79;79.42;97157.06;4962056;28;20845;-83
2021/01/03 08:26:53;;;;;;;32.37;12.50;;;;;;;2.82;79.03;97167.28;4959886;28;20276;-84
2021/01/03 08:29:25;;;;;;;29.70;12.47;;;;;;;2.85;79.20;97171.53;4960683;28;20292;-82
2021/01/03 08:31:54;;;;;;;27.33;12.87;;;;;;;2.84;79.25;97170.66;4958891;28;20698;-83
2021/01/03 08:34:25;;;;;;;30.30;15.13;;;;;;;2.84;79.36;97180.97;4959448;28;20332;-82
2021/01/03 08:36:51;;;;;;;42.40;16.90;;;;;;;2.81;79.28;97175.91;4958721;28;20242;-83
2021/01/03 08:39:18;;;;;;;37.07;17.37;;;;;;;2.85;79.65;97180.09;4957334;28;20228;-82
2021/01/03 08:41:51;;;;;;;51.10;17.47;;;;;;;2.88;79.20;97187.75;4951831;28;20607;-83
2021/01/03 08:44:22;;;;;;;28.10;13.30;;;;;;;2.91;79.17;97186.00;4960921;28;20220;-83
2021/01/03 08:46:49;;;;;;;24.77;13.37;;;;;;;2.89;79.37;97189.44;4959511;28;20267;-83
2021/01/03 08:49:16;;;;;;;27.73;12.97;;;;;;;2.87;79.48;97180.91;4961409;28;20229;-84
2021/01/03 08:51:42;;;;;;;28.47;13.37;;;;;;;2.94;79.36;97191.06;4959532;28;20237;-84
2021/01/03 08:54:10;;;;;;;26.67;12.80;;;;;;;2.91;79.31;97196.31;4959482;28;20303;-82
2021/01/03 08:56:43;;;;;;;27.23;13.23;;;;;;;2.91;79.66;97197.16;4959110;28;20242;-84
2021/01/03 08:59:14;;;;;;;27.80;12.93;;;;;;;2.89;79.64;97189.44;4961521;28;20685;-82
2021/01/03 09:01:41;;;;;;;41.67;15.47;;;;;;;2.97;79.36;97191.00;4957270;28;20241;-82
2021/01/03 09:04:09;;;;;;;38.17;15.93;;;;;;;2.98;79.42;97192.69;4959246;28;20938;-81
2021/01/03 09:06:36;;;;;;;34.23;15.73;;;;;;;2.99;79.22;97204.69;4958847;28;20251;-83
2021/01/03 09:09:09;;;;;;;30.17;15.37;;;;;;;2.97;79.11;97209.03;4959575;28;20216;-82
2021/01/03 09:11:36;;;;;;;34.93;14.70;;;;;;;2.96;79.36;97210.78;4956517;28;20722;-82
2021/01/03 09:14:04;;;;;;;38.17;15.43;;;;;;;2.95;79.56;97213.38;4959346;28;20345;-82
2021/01/03 09:16:39;;;;;;;45.30;16.57;;;;;;;2.97;79.29;97215.03;4957043;28;20327;-82
2021/01/03 09:19:12;;;;;;;34.80;14.87;;;;;;;2.96;79.17;97213.34;4957652;28;20226;-83
2021/01/03 09:21:47;;;;;;;35.30;14.23;;;;;;;2.95;79.20;97214.22;4957991;28;20249;-84
2021/01/03 09:24:20;;;;;;;37.97;14.30;;;;;;;2.95;79.29;97221.09;4959456;28;20221;-82
2021/01/03 09:26:46;;;;;;;67.37;16.10;;;;;;;2.95;79.33;97219.38;4957902;28;20484;-83
2021/01/03 09:29:14;;;;;;;49.23;16.67;;;;;;;2.94;79.46;97221.97;4958925;28;20221;-83
2021/01/03 09:31:56;;;;;;;30.80;13.30;;;;;;;2.95;79.53;97226.25;4958046;28;20254;-83
2021/01/03 09:34:30;;;;;;;27.53;12.90;;;;;;;2.96;79.41;97230.50;4959534;28;20255;-82
2021/01/03 09:37:04;;;;;;;31.50;14.00;;;;;;;2.97;79.74;97234.78;4956045;28;20252;-82
2021/01/03 09:39:53;;;;;;;27.17;12.70;;;;;;;3.00;79.51;97240.72;4958262;28;20255;-83
2021/01/03 09:42:40;;;;;;;25.23;11.80;;;;;;;3.05;79.40;97240.59;4947203;28;20249;-82
2021/01/03 09:45:30;;;;;;;28.90;12.63;;;;;;;3.06;79.29;97244.88;4957748;28;21017;-84
2021/01/03 09:47:58;;;;;;;32.03;13.90;;;;;;;3.08;79.44;97243.97;4952485;28;20251;-82
2021/01/03 09:50:32;;;;;;;25.90;12.73;;;;;;;3.12;79.44;97241.31;4956524;28;20307;-84
2021/01/03 09:53:22;;;;;;;24.07;11.97;;;;;;;3.15;79.30;97241.25;4957010;28;20355;-83
2021/01/03 09:55:53;;;;;;;39.37;14.73;;;;;;;3.18;79.12;97242.03;4959210;28;20237;-83
2021/01/03 09:58:20;;;;;;;30.47;14.27;;;;;;;3.23;79.24;97245.31;4958769;28;20299;-83
2021/01/03 10:00:51;;;;;;;30.87;14.53;;;;;;;3.27;79.05;97246.97;4956916;28;20265;-83
2021/01/03 10:03:22;;;;;;;29.07;13.93;;;;;;;3.34;78.93;97236.50;4959308;28;20221;-84
2021/01/03 10:05:48;;;;;;;37.47;13.87;;;;;;;3.41;78.60;97245.78;4957455;28;20252;-82
2021/01/03 10:08:22;;;;;;;34.57;14.07;;;;;;;3.47;78.97;97238.75;4957860;28;20248;-83
2021/01/03 10:10:53;;;;;;;25.33;13.70;;;;;;;3.51;78.87;97244.69;4958365;28;20236;-83
2021/01/03 10:13:21;;;;;;;22.30;12.50;;;;;;;3.52;78.66;97240.34;4957797;28;20217;-84
2021/01/03 10:15:49;;;;;;;31.93;12.73;;;;;;;3.56;78.53;97245.38;4955548;28;20896;-85
2021/01/03 10:18:29;;;;;;;30.73;13.60;;;;;;;3.63;78.16;97236.63;4959478;28;20343;-82
2021/01/03 10:20:56;;;;;;;36.47;13.90;;;;;;;3.70;78.36;97239.91;4952024;28;20709;-84
2021/01/03 10:23:37;;;;;;;31.47;15.47;;;;;;;3.75;78.04;97237.19;4950939;28;20227;-83
2021/01/03 10:26:06;;;;;;;28.70;13.37;;;;;;;3.78;78.29;97237.13;4952852;28;20237;-82
2021/01/03 10:28:32;;;;;;;30.53;13.43;;;;;;;3.81;78.25;97244.78;4954363;28;20243;-83
2021/01/03 10:30:59;;;;;;;32.83;13.93;;;;;;;3.81;78.21;97232.72;4953316;28;20299;-83
2021/01/03 10:33:25;;;;;;;32.80;13.77;;;;;;;3.81;77.95;97242.19;4941475;28;20225;-82
2021/01/03 10:35:52;;;;;;;32.67;14.73;;;;;;;3.81;77.89;97240.47;4948405;28;20232;-82
2021/01/03 10:38:18;;;;;;;23.90;13.47;;;;;;;3.80;77.86;97245.66;4952461;28;20254;-83
2021/01/03 10:40:45;;;;;;;40.30;14.63;;;;;;;3.79;77.94;97244.81;4945998;28;20392;-83
2021/01/03 10:43:11;;;;;;;29.50;13.83;;;;;;;3.81;78.03;97242.19;4955124;28;20603;-83
2021/01/03 10:45:37;;;;;;;31.07;13.83;;;;;;;3.84;78.02;97248.13;4947784;28;20314;-83
2021/01/03 10:48:04;;;;;;;30.23;13.97;;;;;;;3.88;78.13;97248.91;4956224;28;20237;-83
2021/01/03 10:50:31;;;;;;;26.20;14.07;;;;;;;3.90;77.65;97236.78;4950112;28;20331;-83
2021/01/03 10:52:58;;;;;;;29.87;13.43;;;;;;;3.93;77.48;97241.84;4949786;28;20228;-82
2021/01/03 10:55:24;;;;;;;28.57;13.13;;;;;;;3.95;77.74;97239.25;4950159;28;20225;-83
2021/01/03 10:57:51;;;;;;;24.80;12.37;;;;;;;3.98;77.43;97245.16;4954337;28;20229;-82
2021/01/03 11:00:19;;;;;;;23.30;12.07;;;;;;;3.95;77.76;97242.69;4950913;28;20314;-81
2021/01/03 11:02:45;;;;;;;21.30;11.53;;;;;;;3.92;78.07;97234.19;4955099;28;20217;-82
2021/01/03 11:05:12;;;;;;;20.90;11.13;;;;;;;3.95;77.74;97239.25;4949373;28;20217;-81
2021/01/03 11:07:38;;;;;;;18.70;10.87;;;;;;;3.99;77.44;97240.88;4951578;28;20242;-81
2021/01/03 11:10:08;;;;;;;20.03;10.60;;;;;;;4.00;77.90;97237.38;4953472;28;20213;-81
2021/01/03 11:12:34;;;;;;;20.60;11.60;;;;;;;4.00;77.74;97237.38;4953747;28;20239;-82
2021/01/03 11:15:00;;;;;;;22.47;11.90;;;;;;;4.02;77.64;97236.44;4955596;28;20220;-83
2021/01/03 11:17:27;;;;;;;23.00;12.10;;;;;;;4.03;78.02;97234.75;4940921;28;20257;-84
2021/01/03 11:19:53;;;;;;;20.00;11.03;;;;;;;4.00;77.60;97238.22;4950762;28;20236;-83
2021/01/03 11:22:19;;;;;;;21.10;11.03;;;;;;;4.01;78.26;97234.78;4941883;28;20243;-83
2021/01/03 11:24:46;;;;;;;20.53;11.00;;;;;;;4.04;77.98;97223.50;4937427;28;20660;-82
2021/01/03 11:27:15;;;;;;;26.53;12.57;;;;;;;4.10;77.64;97227.66;4952317;28;20336;-82
2021/01/03 11:29:41;;;;;;;23.17;11.90;;;;;;;4.16;78.01;97232.66;4953253;28;20224;-82
2021/01/03 11:32:11;;;;;;;22.30;12.17;;;;;;;4.17;77.84;97229.19;4951826;28;20244;-83
2021/01/03 11:34:37;;;;;;;21.17;11.13;;;;;;;4.16;77.65;97232.66;4954857;28;20221;-85
2021/01/03 11:37:05;;;;;;;20.77;11.13;;;;;;;4.20;77.61;97227.34;4952212;28;20318;-83
2021/01/03 11:39:32;;;;;;;18.57;10.87;;;;;;;4.16;77.44;97223.19;4953797;28;20221;-82
2021/01/03 11:42:00;;;;;;;21.63;11.50;;;;;;;4.14;77.06;97230.13;4953848;28;20740;-83